Time;durP1;ratioP1;P1;durP2;ratioP2;P2;SDS_P1;SDS_P2;PMS_P1;PMS_P2;Temp;Humidity;BMP_temperature;BMP_pressure;BME280_temperature;BME280_humidity;BME280_pressure;Samples;Min_cycle;Max_cycle;Signal;HPM_P1;HPM_P2
2022/04/26 03:38:07;;;;;;;6.05;4.12;;;;;;;-0.54;90.38;99478.03;1682192;82;21044;-62
2022/04/26 03:40:34;;;;;;;18.73;5.23;;;;;;;-0.45;90.56;99472.84;1701729;81;21039;-61
2022/04/26 03:43:02;;;;;;;18.30;6.23;;;;;;;-0.05;91.13;99470.00;1705916;83;21492;-62
2022/04/26 03:45:29;;;;;;;17.00;5.30;;;;;;;0.59;91.43;99473.23;1711390;83;21045;-62
2022/04/26 03:47:56;;;;;;;9.80;4.95;;;;;;;1.28;91.28;99472.82;1689556;84;20966;-62
2022/04/26 03:50:22;;;;;;;7.93;4.63;;;;;;;1.92;90.75;99474.44;1702405;83;21085;-62
2022/04/26 03:52:52;;;;;;;6.90;3.57;;;;;;;2.65;90.37;99470.16;1698855;83;21061;-62
2022/04/26 03:55:17;;;;;;;7.85;4.30;;;;;;;3.41;90.08;99473.34;1696629;83;21628;-62
2022/04/26 03:57:44;;;;;;;5.65;3.72;;;;;;;4.13;89.81;99467.33;1696834;83;21065;-62
2022/04/26 04:00:13;;;;;;;10.85;2.98;;;;;;;4.75;89.11;99476.06;1692722;82;20980;-62
2022/04/26 04:02:39;;;;;;;4.22;2.92;;;;;;;5.40;88.75;99479.78;1686668;83;21136;-63
2022/04/26 04:05:07;;;;;;;4.22;3.00;;;;;;;6.03;87.92;99473.53;1701791;83;21052;-62
2022/04/26 04:07:34;;;;;;;3.40;2.50;;;;;;;6.56;86.93;99471.78;1706888;83;21431;-62
2022/04/26 04:10:00;;;;;;;8.40;2.35;;;;;;;7.04;86.29;99473.52;1697762;83;21590;-62
2022/04/26 04:12:27;;;;;;;2.37;2.17;;;;;;;7.42;85.56;99467.33;1703877;83;21031;-62
2022/04/26 04:14:54;;;;;;;3.23;2.50;;;;;;;7.88;85.36;99468.14;1705277;83;21015;-62
2022/04/26 04:17:21;;;;;;;3.42;2.83;;;;;;;8.26;84.56;99474.34;1689714;83;21587;-62
2022/04/26 04:19:47;;;;;;;3.87;3.05;;;;;;;8.59;84.06;99473.41;1702113;83;21415;-63
2022/04/26 04:22:14;;;;;;;10.15;3.58;;;;;;;9.05;84.17;99475.31;1701969;83;21026;-62
2022/04/26 04:24:41;;;;;;;3.30;3.00;;;;;;;9.53;83.76;99476.58;1700955;83;21612;-62
2022/04/26 04:27:09;;;;;;;7.67;4.17;;;;;;;9.97;83.24;99473.62;1698672;83;21341;-62
2022/04/26 04:29:35;;;;;;;7.20;4.53;;;;;;;10.19;82.89;99477.76;1696835;83;21008;-63
2022/04/26 04:32:03;;;;;;;8.38;4.83;;;;;;;10.45;82.33;99479.96;1700846;83;21139;-63
2022/04/26 04:34:30;;;;;;;9.10;5.03;;;;;;;10.72;82.26;99484.67;1703803;83;21109;-62
2022/04/26 04:36:58;;;;;;;9.00;5.10;;;;;;;10.93;81.96;99480.13;1700305;83;21055;-64
2022/04/26 04:39:27;;;;;;;5.80;3.85;;;;;;;11.07;81.62;99484.63;1695311;84;21516;-63
2022/04/26 04:41:54;;;;;;;9.13;4.30;;;;;;;11.29;81.75;99482.55;1675042;83;21676;-63
2022/04/26 04:44:21;;;;;;;6.50;4.40;;;;;;;11.61;82.76;99487.30;1709695;81;21965;-63
2022/04/26 04:46:49;;;;;;;7.45;4.15;;;;;;;12.08;82.45;99486.92;1712219;83;21129;-64
2022/04/26 04:49:16;;;;;;;4.87;3.85;;;;;;;12.63;82.45;99478.91;1690737;83;21626;-64
2022/04/26 04:51:42;;;;;;;7.05;4.62;;;;;;;12.97;81.53;99482.98;1701213;83;21025;-63
2022/04/26 04:54:09;;;;;;;8.95;4.70;;;;;;;13.37;81.79;99485.32;1701166;83;21047;-64
2022/04/26 04:56:38;;;;;;;13.38;7.45;;;;;;;14.00;82.30;99481.33;1689764;83;21770;-63
2022/04/26 04:59:07;;;;;;;11.55;7.83;;;;;;;14.68;82.28;99478.17;1671776;84;21036;-63
2022/04/26 05:01:33;;;;;;;9.05;6.35;;;;;;;15.35;82.53;99480.06;1676640;84;20992;-63
2022/04/26 05:04:00;;;;;;;17.62;6.95;;;;;;;15.73;81.17;99480.91;1677415;83;21033;-63
2022/04/26 05:06:27;;;;;;;11.50;7.35;;;;;;;15.77;78.85;99472.70;1686641;83;21116;-63
2022/04/26 05:08:54;;;;;;;12.00;7.28;;;;;;;15.82;78.89;99475.84;1679321;84;21435;-63
2022/04/26 05:11:20;;;;;;;9.53;6.33;;;;;;;15.99;79.96;99479.00;1686190;83;28225;-63
2022/04/26 05:13:47;;;;;;;19.17;6.80;;;;;;;16.22;78.93;99478.16;1683201;83;20979;-63
2022/04/26 05:16:14;;;;;;;;;;;;;;;16.67;79.15;99476.96;1684015;84;21034;-64
2022/04/26 05:18:40;;;;;;;13.58;6.72;;;;;;;16.47;76.79;99482.91;1675450;84;20181;-63
2022/04/26 05:21:12;;;;;;;;;;;;;;;16.34;77.72;99479.86;1681735;83;21110;-67
2022/04/26 05:26:25;;;;;;;11.38;6.10;;;;;;;16.29;76.67;99484.63;1678489;83;21047;-63
2022/04/26 05:28:52;;;;;;;15.88;5.55;;;;;;;16.24;76.57;99488.08;1673719;84;20934;-63
2022/04/26 05:31:19;;;;;;;8.83;5.45;;;;;;;16.22;75.83;99486.06;1670768;83;21038;-65
2022/04/26 05:33:47;;;;;;;8.05;5.35;;;;;;;16.29;75.78;99487.27;1694675;83;23241;-64
2022/04/26 05:37:07;;;;;;;11.57;5.80;;;;;;;16.43;75.61;99490.67;1697151;83;21567;-64
2022/04/26 05:39:36;;;;;;;11.38;5.67;;;;;;;16.64;76.10;99493.02;1684492;83;21039;-64
2022/04/26 05:42:03;;;;;;;;;;;;;;;17.27;76.55;99493.93;1686964;84;20997;-64
2022/04/26 05:44:30;;;;;;;13.28;5.95;;;;;;;17.56;74.76;99492.47;1681100;84;20182;-64
2022/04/26 05:46:57;;;;;;;8.10;5.12;;;;;;;17.67;75.32;99492.45;1680721;83;21141;-64
2022/04/26 05:49:24;;;;;;;6.97;5.08;;;;;;;17.73;74.42;99495.53;1693685;83;21064;-64
2022/04/26 05:51:51;;;;;;;8.65;5.00;;;;;;;17.91;74.99;99490.13;1690966;83;21671;-64
2022/04/26 05:54:18;;;;;;;7.47;4.85;;;;;;;18.32;75.43;99489.86;1691136;83;21080;-65
2022/04/26 05:56:45;;;;;;;6.75;5.47;;;;;;;18.64;74.46;99492.92;1696730;82;21106;-65
2022/04/26 05:59:11;;;;;;;8.08;5.97;;;;;;;18.77;73.60;99497.57;1701941;81;21496;-65
2022/04/26 06:01:38;;;;;;;9.10;5.97;;;;;;;18.93;74.34;99493.97;1726821;81;20926;-65
2022/04/26 06:04:06;;;;;;;6.40;5.80;;;;;;;19.11;73.37;99494.68;1685721;83;20923;-64
2022/04/26 06:06:35;;;;;;;7.15;6.15;;;;;;;19.17;72.99;99494.14;1700302;82;21031;-63
2022/04/26 06:09:04;;;;;;;7.35;5.65;;;;;;;19.14;73.58;99495.73;1695982;82;21033;-66
2022/04/26 06:11:31;;;;;;;5.60;4.95;;;;;;;19.38;73.84;99502.88;1692735;84;21624;-66
2022/04/26 06:14:02;;;;;;;8.38;5.08;;;;;;;19.68;73.90;99490.07;1699312;82;20982;-64
2022/04/26 06:16:29;;;;;;;10.85;4.65;;;;;;;19.95;74.12;99499.69;1692081;82;21613;-64
2022/04/26 06:18:56;;;;;;;7.47;3.98;;;;;;;20.24;73.05;99497.87;1694194;84;21540;-65
2022/04/26 06:21:24;;;;;;;8.43;4.30;;;;;;;20.24;72.58;99496.55;1692686;82;21554;-65
2022/04/26 06:23:51;;;;;;;5.12;3.55;;;;;;;20.31;72.15;99492.86;1682504;84;21997;-65
2022/04/26 06:26:17;;;;;;;2.95;2.67;;;;;;;20.48;72.20;99500.59;1678115;82;21038;-65
2022/04/26 06:28:44;;;;;;;3.83;3.42;;;;;;;20.60;72.20;99502.14;1691425;84;20990;-66
2022/04/26 06:31:16;;;;;;;3.30;2.95;;;;;;;20.90;71.61;99502.92;1683832;84;21058;-65
2022/04/26 06:33:44;;;;;;;4.83;3.05;;;;;;;20.66;70.44;99499.41;1687034;84;21379;-64
2022/04/26 06:36:11;;;;;;;6.00;2.80;;;;;;;20.38;69.60;99504.56;1692425;82;21096;-65
2022/04/26 06:38:38;;;;;;;3.77;2.62;;;;;;;20.22;69.02;99511.77;1688276;82;21243;-64
2022/04/26 06:41:05;;;;;;;3.70;2.47;;;;;;;19.43;65.48;99515.20;1683924;82;21144;-64
2022/04/26 06:43:34;;;;;;;4.87;3.22;;;;;;;18.90;67.67;99514.05;1689579;82;21079;-65
2022/04/26 06:46:01;;;;;;;3.40;3.02;;;;;;;18.89;68.36;99512.39;1691293;83;21625;-65
2022/04/26 06:48:30;;;;;;;5.20;3.47;;;;;;;19.06;68.23;99515.41;1693445;83;21470;-64
2022/04/26 06:50:59;;;;;;;4.22;3.60;;;;;;;19.06;67.85;99518.05;1697915;83;21893;-65
2022/04/26 06:53:26;;;;;;;5.65;3.60;;;;;;;19.28;68.15;99519.20;1700404;82;21061;-64
2022/04/26 06:55:55;;;;;;;3.40;3.10;;;;;;;19.58;67.19;99517.50;1703829;82;20974;-65
2022/04/26 06:58:22;;;;;;;4.28;3.10;;;;;;;19.31;66.40;99525.55;1702115;83;20963;-65
2022/04/26 07:00:49;;;;;;;8.38;3.15;;;;;;;18.88;64.75;99523.11;1701792;83;21685;-66
2022/04/26 07:03:16;;;;;;;5.95;4.08;;;;;;;18.60;65.75;99521.89;1704279;81;21055;-64
2022/04/26 07:05:45;;;;;;;6.35;2.70;;;;;;;18.69;65.87;99527.27;1699944;83;21061;-64
2022/04/26 07:08:12;;;;;;;6.30;3.50;;;;;;;18.53;64.04;99527.70;1699835;83;21027;-64
2022/04/26 07:10:38;;;;;;;;;;;;;;;18.58;65.58;99527.82;1701680;83;21635;-65
2022/04/26 07:13:05;;;;;;;2.60;2.40;;;;;;;18.68;64.05;99526.06;1703395;83;21176;-64
2022/04/26 07:15:32;;;;;;;2.95;2.58;;;;;;;17.70;61.09;99541.98;1704079;82;21562;-64
2022/04/26 07:17:59;;;;;;;;;;;;;;;17.01;62.28;99540.33;1702232;82;21083;-65
2022/04/26 07:20:28;;;;;;;;;;;;;;;16.61;62.90;99540.70;1704861;83;20152;-62
2022/04/26 07:22:55;;;;;;;3.05;2.55;;;;;;;16.42;63.58;99541.70;1701598;83;20516;-62
2022/04/26 07:25:23;;;;;;;7.90;3.30;;;;;;;16.10;62.68;99541.81;1700905;83;21185;-62
2022/04/26 07:27:49;;;;;;;;;;;;;;;15.54;62.80;99539.25;1702096;83;21583;-62
2022/04/26 07:30:16;;;;;;;4.87;2.02;;;;;;;15.31;62.20;99546.97;1699800;83;20120;-62
2022/04/26 07:35:28;;;;;;;4.90;2.37;;;;;;;14.05;60.67;99557.97;1703397;82;21642;-62
2022/04/26 07:38:06;;;;;;;3.05;2.65;;;;;;;13.92;62.66;99560.16;1704704;82;21878;-63
2022/04/26 07:40:33;;;;;;;2.52;1.60;;;;;;;14.03;62.70;99567.75;1671706;83;21066;-66
2022/04/26 07:43:01;;;;;;;2.30;1.80;;;;;;;13.84;59.72;99564.61;1698320;83;21526;-63
2022/04/26 07:45:27;;;;;;;2.55;1.95;;;;;;;13.35;59.45;99567.64;1697071;83;21000;-63
2022/04/26 07:47:54;;;;;;;4.55;2.25;;;;;;;13.06;60.00;99577.25;1702404;83;21697;-63
2022/04/26 07:50:21;;;;;;;1.67;1.57;;;;;;;12.99;60.20;99579.38;1699704;82;21086;-62
2022/04/26 07:52:48;;;;;;;2.83;1.37;;;;;;;12.75;58.75;99579.90;1707079;82;21469;-62
2022/04/26 07:55:14;;;;;;;2.52;1.30;;;;;;;12.56;59.00;99581.06;1704001;83;20998;-63
2022/04/26 07:57:44;;;;;;;3.20;1.50;;;;;;;12.49;58.33;99586.66;1687237;83;21704;-63
2022/04/26 08:00:12;;;;;;;1.92;1.80;;;;;;;12.37;54.85;99581.26;1712801;81;20951;-62
2022/04/26 08:02:39;;;;;;;1.45;1.30;;;;;;;11.97;57.72;99580.88;1701446;82;22204;-63
2022/04/26 08:05:09;;;;;;;1.87;1.50;;;;;;;12.12;58.41;99593.10;1699983;82;21694;-63
2022/04/26 08:07:41;;;;;;;1.62;1.35;;;;;;;12.23;58.53;99586.80;1680459;83;20986;-63
2022/04/26 08:10:10;;;;;;;5.62;1.45;;;;;;;12.50;58.70;99591.42;1698601;83;21073;-61
2022/04/26 08:12:42;;;;;;;2.17;1.80;;;;;;;12.49;57.60;99587.09;1699699;83;20957;-62
2022/04/26 08:15:12;;;;;;;2.02;1.65;;;;;;;12.59;59.14;99592.19;1705489;83;22565;-62
2022/04/26 08:17:38;;;;;;;1.45;1.30;;;;;;;12.99;59.29;99591.17;1697207;83;20996;-62
2022/04/26 08:20:07;;;;;;;3.65;2.00;;;;;;;13.18;58.46;99589.61;1703749;83;21073;-62
2022/04/26 08:22:34;;;;;;;2.00;1.40;;;;;;;13.25;58.11;99595.31;1677786;83;21233;-62
2022/04/26 08:27:49;;;;;;;1.65;1.30;;;;;;;13.35;56.86;99593.86;1703817;82;21138;-63
2022/04/26 08:30:17;;;;;;;10.18;1.72;;;;;;;13.09;57.18;99601.49;1695710;83;21259;-62
2022/04/26 08:32:47;;;;;;;1.35;1.25;;;;;;;13.06;57.12;99601.67;1715546;81;21673;-62
2022/04/26 08:35:18;;;;;;;2.50;1.27;;;;;;;12.97;56.06;99599.61;1723383;81;21545;-61
2022/04/26 08:37:45;;;;;;;1.85;1.60;;;;;;;12.68;55.61;99599.51;1696173;83;21721;-61
2022/04/26 08:40:13;;;;;;;2.05;1.65;;;;;;;12.44;54.89;99599.63;1691634;81;21083;-61
2022/04/26 08:42:46;;;;;;;1.62;1.47;;;;;;;12.45;56.22;99602.62;1697049;82;21009;-62
2022/04/26 08:45:19;;;;;;;2.15;1.52;;;;;;;12.57;56.16;99599.28;1701791;83;21062;-61
2022/04/26 08:55:55;;;;;;;2.27;1.30;;;;;;;12.64;54.59;99608.49;1836769;76;22839;-61
2022/04/26 08:58:25;;;;;;;2.58;1.52;;;;;;;12.70;55.38;99612.53;1816093;78;21035;-62
2022/04/26 09:02:32;;;;;;;18.02;3.25;;;;;;;13.32;56.12;99605.86;1840657;75;23414;-62
2022/04/26 09:05:13;;;;;;;4.58;1.98;;;;;;;13.55;56.06;99606.59;1819219;77;21040;-61
2022/04/26 09:08:24;;;;;;;2.27;1.60;;;;;;;13.86;56.40;99611.26;1814524;77;21092;-63
2022/04/26 09:10:54;;;;;;;5.28;1.70;;;;;;;14.07;55.54;99603.36;1681766;83;21533;-63
2022/04/26 09:13:24;;;;;;;1.55;1.30;;;;;;;14.10;55.61;99611.03;1685267;83;20929;-63
2022/04/26 09:15:58;;;;;;;4.05;1.77;;;;;;;14.21;55.51;99604.27;1690945;83;21040;-63
2022/04/26 09:18:33;;;;;;;9.30;3.12;;;;;;;14.30;55.63;99608.91;1694074;83;21007;-62
2022/04/26 09:21:16;;;;;;;3.60;1.97;;;;;;;14.43;55.48;99606.35;1692686;83;21274;-63
2022/04/26 09:23:42;;;;;;;2.62;2.10;;;;;;;14.65;55.36;99613.70;1688297;83;21711;-63
2022/04/26 09:26:11;;;;;;;4.20;1.82;;;;;;;14.78;55.55;99607.98;1682711;83;20944;-63
2022/04/26 09:29:07;;;;;;;2.37;2.17;;;;;;;14.84;54.98;99604.95;1648124;85;21514;-63
2022/04/26 09:31:37;;;;;;;2.75;1.95;;;;;;;14.83;54.78;99600.64;1708289;82;21007;-61
2022/04/26 09:34:15;;;;;;;3.55;1.77;;;;;;;14.84;53.21;99602.31;1741427;81;21084;-64
2022/04/26 09:36:52;;;;;;;1.55;1.35;;;;;;;14.37;51.90;99615.47;1758922;80;20993;-63
2022/04/26 09:39:20;;;;;;;3.60;1.50;;;;;;;14.25;54.08;99612.30;1751156;80;21051;-63
2022/04/26 09:41:52;;;;;;;19.15;2.58;;;;;;;14.48;54.46;99616.06;1755925;80;21048;-62
2022/04/26 09:44:31;;;;;;;6.33;2.05;;;;;;;14.65;54.29;99618.97;1756504;80;21039;-62
2022/04/26 09:47:01;;;;;;;4.33;2.05;;;;;;;14.69;53.66;99623.06;1759220;80;21962;-62
2022/04/26 09:49:35;;;;;;;2.33;2.12;;;;;;;14.39;52.48;99610.94;1756843;80;21566;-63
2022/04/26 09:52:03;;;;;;;1.90;1.65;;;;;;;13.95;48.99;99613.77;1753918;80;21068;-62
2022/04/26 09:54:32;;;;;;;2.40;2.12;;;;;;;13.57;49.67;99609.98;1755397;79;20972;-63
2022/04/26 09:57:02;;;;;;;3.90;2.08;;;;;;;13.56;51.88;99616.64;1753733;80;75356;-63
2022/04/26 09:59:33;;;;;;;2.47;1.80;;;;;;;13.75;52.76;99615.02;1729934;82;21230;-64
2022/04/26 10:02:02;;;;;;;2.30;2.10;;;;;;;13.91;52.55;99614.44;1716983;82;21500;-62
2022/04/26 10:04:31;;;;;;;2.05;1.60;;;;;;;14.07;52.84;99613.85;1720924;82;21132;-64
2022/04/26 10:07:08;;;;;;;5.37;2.15;;;;;;;14.14;51.29;99613.45;1724386;82;20927;-63
2022/04/26 10:09:35;;;;;;;1.98;1.75;;;;;;;13.77;49.01;99621.02;1728646;82;20931;-62
2022/04/26 10:12:04;;;;;;;2.45;1.72;;;;;;;13.44;49.38;99616.90;1725819;82;21492;-62
2022/04/26 10:14:31;;;;;;;2.17;1.92;;;;;;;13.41;51.04;99624.95;1730180;82;20918;-63
2022/04/26 10:16:59;;;;;;;2.98;2.20;;;;;;;13.48;51.22;99624.98;1721719;81;20928;-63
2022/04/26 10:19:46;;;;;;;2.95;2.12;;;;;;;13.79;51.56;99627.03;1721423;81;21149;-62
2022/04/26 10:22:17;;;;;;;2.95;2.12;;;;;;;14.01;52.08;99619.50;1731703;81;21006;-62
2022/04/26 10:25:00;;;;;;;4.37;1.90;;;;;;;14.50;52.45;99620.28;1728575;81;21282;-62
2022/04/26 10:27:27;;;;;;;2.10;1.90;;;;;;;14.85;52.18;99621.11;1638998;86;21104;-62
2022/04/26 10:29:54;;;;;;;4.37;2.30;;;;;;;14.98;52.04;99616.72;1643903;86;21082;-62
2022/04/26 10:32:38;;;;;;;7.00;2.47;;;;;;;15.08;51.70;99614.30;1641351;85;21149;-62
2022/04/26 10:35:29;;;;;;;2.47;2.12;;;;;;;15.29;52.35;99613.78;1639093;86;21171;-62
2022/04/26 10:38:15;;;;;;;5.80;2.05;;;;;;;15.53;51.55;99606.00;1639298;86;21465;-62
2022/04/26 10:41:06;;;;;;;3.27;1.82;;;;;;;15.59;51.59;99614.77;1638742;86;21082;-62
2022/04/26 10:43:33;;;;;;;3.95;2.37;;;;;;;15.55;51.20;99607.58;1639685;86;21086;-62
2022/04/26 10:46:15;;;;;;;3.05;2.30;;;;;;;15.38;51.56;99611.38;1641669;86;21143;-62
2022/04/26 10:48:43;;;;;;;4.20;2.37;;;;;;;15.37;50.65;99607.04;1637546;86;21077;-63
2022/04/26 10:51:33;;;;;;;3.67;2.22;;;;;;;15.18;50.53;99607.96;1644274;86;22337;-64
2022/04/26 10:54:03;;;;;;;3.47;2.33;;;;;;;14.77;49.07;99615.52;1644705;86;21024;-65
2022/04/26 10:56:31;;;;;;;5.35;2.67;;;;;;;14.25;48.07;99610.98;1638962;86;21084;-67
2022/04/26 10:58:58;;;;;;;3.85;2.10;;;;;;;14.13;49.51;99611.78;1639254;86;21109;-64
2022/04/26 11:01:30;;;;;;;3.67;1.90;;;;;;;14.09;49.45;99613.30;1618523;86;21546;-65
2022/04/26 11:03:56;;;;;;;3.20;2.17;;;;;;;13.87;47.76;99616.90;1688155;82;21964;-62
2022/04/26 11:06:39;;;;;;;5.28;2.20;;;;;;;13.68;48.41;99616.36;1719350;82;20969;-64
2022/04/26 11:09:13;;;;;;;2.80;1.90;;;;;;;13.64;49.39;99613.92;1711092;82;21060;-61
2022/04/26 11:11:51;;;;;;;4.80;2.20;;;;;;;13.92;49.55;99619.22;1709631;82;21063;-62
2022/04/26 11:14:20;;;;;;;7.03;1.92;;;;;;;14.28;50.14;99610.79;1704719;82;21154;-62
2022/04/26 11:17:26;;;;;;;6.58;2.55;;;;;;;14.70;49.79;99612.46;1816835;75;23235;-62
2022/04/26 11:20:02;;;;;;;3.27;1.90;;;;;;;14.76;49.48;99621.73;1777240;79;21472;-61
2022/04/26 11:29:27;;;;;;;5.72;2.80;;;;;;;13.55;47.33;99622.34;1815733;77;21063;-61
2022/04/26 11:31:58;;;;;;;3.20;2.55;;;;;;;13.45;48.64;99631.72;1838188;77;20938;-61
2022/04/26 11:34:47;;;;;;;3.45;2.47;;;;;;;13.39;47.97;99633.41;1857272;76;21482;-62
2022/04/26 11:37:15;;;;;;;4.10;2.10;;;;;;;13.25;48.02;99635.95;1846550;76;20984;-62
2022/04/26 11:39:43;;;;;;;4.05;2.27;;;;;;;13.11;47.99;99635.02;1839798;76;21569;-61
2022/04/26 11:42:12;;;;;;;5.78;2.42;;;;;;;13.03;48.23;99642.96;1828739;77;21634;-62
2022/04/26 11:45:05;;;;;;;4.72;2.90;;;;;;;13.06;48.63;99638.38;1827634;77;20949;-62
2022/04/26 11:47:49;;;;;;;3.50;2.50;;;;;;;13.17;48.79;99637.27;1841725;75;20918;-62
2022/04/26 11:50:21;;;;;;;3.08;2.55;;;;;;;13.27;48.51;99644.61;1799891;77;21664;-62
2022/04/26 11:52:52;;;;;;;3.12;2.25;;;;;;;13.28;47.46;99646.32;1848915;76;21506;-61
2022/04/26 11:55:25;;;;;;;6.03;2.45;;;;;;;13.20;48.26;99644.95;1787640;79;21117;-62
2022/04/26 11:57:56;;;;;;;3.55;2.10;;;;;;;13.28;48.99;99639.77;1778255;78;21036;-62
2022/04/26 12:00:23;;;;;;;3.47;1.72;;;;;;;13.52;49.26;99643.51;1778800;79;21601;-61
2022/04/26 12:02:52;;;;;;;2.15;1.75;;;;;;;13.55;47.89;99645.95;1766483;79;20976;-62
2022/04/26 12:05:25;;;;;;;5.85;1.92;;;;;;;13.51;48.81;99652.33;1808194;78;20969;-62
2022/04/26 12:08:14;;;;;;;2.35;1.40;;;;;;;13.58;49.22;99647.09;1788927;78;21109;-63
2022/04/26 12:10:47;;;;;;;2.60;1.65;;;;;;;13.76;48.62;99642.97;1724969;81;21589;-61
2022/04/26 12:13:17;;;;;;;4.67;1.80;;;;;;;13.71;49.02;99642.40;1721966;81;21625;-62
2022/04/26 12:15:44;;;;;;;3.35;2.40;;;;;;;13.83;48.34;99640.32;1662143;83;21011;-61
2022/04/26 12:19:01;;;;;;;5.45;2.92;;;;;;;13.60;47.85;99641.27;1826944;76;28472;-62
2022/04/26 12:21:32;;;;;;;2.77;2.50;;;;;;;13.41;48.02;99655.12;1833041;77;20992;-61
2022/04/26 12:24:21;;;;;;;4.15;2.05;;;;;;;13.37;48.44;99654.94;1755168;80;21289;-62
2022/04/26 12:27:07;;;;;;;2.37;1.35;;;;;;;13.24;46.88;99663.12;1770247;81;20899;-63
2022/04/26 12:29:51;;;;;;;2.40;1.75;;;;;;;13.03;47.58;99662.14;1792864;79;21687;-61
2022/04/26 12:32:26;;;;;;;1.20;1.10;;;;;;;12.89;47.11;99656.86;1770602;79;21302;-61
2022/04/26 12:35:03;;;;;;;2.37;1.12;;;;;;;12.80;47.49;99658.23;1784885;79;20977;-62
2022/04/26 12:37:31;;;;;;;;;;;;;;;12.70;48.02;99660.53;1766600;81;21494;-61
2022/04/26 12:40:12;;;;;;;1.50;1.15;;;;;;;12.67;48.20;99665.94;1765998;81;20090;-61
2022/04/26 12:42:45;;;;;;;9.90;1.37;;;;;;;12.60;47.44;99667.20;1765024;80;21040;-61
2022/04/26 12:45:24;;;;;;;5.62;1.30;;;;;;;12.42;47.67;99665.64;1765051;80;21821;-61
2022/04/26 12:51:24;;;;;;;4.35;3.60;;;;;;;12.18;47.34;99672.59;1666022;84;21201;-63
2022/04/26 12:53:54;;;;;;;4.35;2.45;;;;;;;12.10;47.57;99676.12;1721824;81;20936;-61
2022/04/26 12:56:25;;;;;;;6.05;3.08;;;;;;;12.07;47.83;99676.25;1725487;82;20984;-61
2022/04/26 12:58:54;;;;;;;4.67;2.95;;;;;;;12.09;47.51;99683.56;1718748;82;21584;-61
2022/04/26 13:01:23;;;;;;;3.22;2.60;;;;;;;12.11;48.10;99688.73;1731788;81;21063;-62
2022/04/26 13:03:51;;;;;;;;;;;;;;;12.11;47.42;99684.34;1734961;81;21084;-62
2022/04/26 13:06:19;;;;;;;3.52;2.00;;;;;;;12.18;47.70;99681.75;1722311;81;20546;-62
2022/04/26 13:08:48;;;;;;;1.80;1.32;;;;;;;12.23;46.78;99682.34;1703752;82;21022;-62
2022/04/26 13:11:19;;;;;;;3.20;1.92;;;;;;;12.34;47.74;99680.92;1707540;82;21160;-61
2022/04/26 13:13:49;;;;;;;3.80;1.55;;;;;;;12.51;47.73;99674.28;1706878;82;21597;-62
2022/04/26 13:16:16;;;;;;;2.45;1.57;;;;;;;12.63;47.75;99674.92;1728998;82;21063;-62
2022/04/26 13:18:43;;;;;;;4.65;1.50;;;;;;;12.81;47.75;99673.49;1714267;81;21805;-62
2022/04/26 13:21:10;;;;;;;4.55;2.20;;;;;;;12.99;47.86;99673.72;1708634;82;21584;-62
2022/04/26 13:23:38;;;;;;;3.77;2.00;;;;;;;13.10;47.18;99680.97;1708454;82;20991;-62
2022/04/26 13:26:06;;;;;;;2.50;1.72;;;;;;;13.00;46.03;99680.67;1745888;80;20989;-62
2022/04/26 13:28:34;;;;;;;3.02;1.60;;;;;;;12.96;46.86;99666.04;1790454;79;21107;-62
2022/04/26 13:31:01;;;;;;;3.10;1.42;;;;;;;12.95;44.25;99674.84;1797032;79;20954;-60
2022/04/26 13:33:30;;;;;;;2.00;1.77;;;;;;;12.92;45.97;99675.03;1772831;79;22178;-62
2022/04/26 13:35:56;;;;;;;3.12;1.27;;;;;;;12.95;46.83;99674.84;1760734;81;21083;-61
2022/04/26 13:38:23;;;;;;;1.57;1.40;;;;;;;13.03;46.12;99666.08;1792553;78;22279;-61
2022/04/26 13:40:53;;;;;;;1.07;1.00;;;;;;;13.12;46.88;99662.91;1796372;79;21374;-62
2022/04/26 13:43:23;;;;;;;3.55;1.30;;;;;;;13.34;46.22;99662.99;1796321;78;21005;-62
2022/04/26 13:45:51;;;;;;;1.72;1.20;;;;;;;13.33;46.62;99661.28;1787663;79;21014;-62
2022/04/26 13:48:17;;;;;;;1.45;1.10;;;;;;;13.00;44.31;99672.81;1792520;79;21721;-62
2022/04/26 13:50:44;;;;;;;2.22;1.20;;;;;;;12.79;44.85;99672.25;1789606;79;20957;-61
2022/04/26 13:53:11;;;;;;;2.98;1.50;;;;;;;12.57;45.15;99663.45;1794538;79;21044;-61
2022/04/26 13:55:42;;;;;;;2.62;1.47;;;;;;;12.45;44.98;99662.84;1782733;79;21044;-62
2022/04/26 13:58:09;;;;;;;4.95;1.37;;;;;;;12.32;45.26;99665.28;1792117;78;20997;-62
2022/04/26 14:00:36;;;;;;;3.40;2.00;;;;;;;12.41;45.74;99673.97;1788213;79;20922;-62
2022/04/26 14:03:04;;;;;;;5.00;1.67;;;;;;;12.44;45.47;99663.79;1793207;79;21068;-61
2022/04/26 14:05:31;;;;;;;4.42;1.40;;;;;;;12.39;45.89;99669.27;1793677;78;21453;-62
2022/04/26 14:07:57;;;;;;;2.08;1.17;;;;;;;12.38;45.42;99675.45;1768503;79;21561;-61
2022/04/26 14:10:24;;;;;;;2.80;1.50;;;;;;;12.47;45.25;99671.47;1764580;81;21056;-62
2022/04/26 14:12:51;;;;;;;1.82;1.35;;;;;;;12.69;45.74;99675.04;1761102;81;20910;-62
2022/04/26 14:23:34;;;;;;;1.70;1.35;;;;;;;12.64;43.11;99687.08;1795557;79;21565;-61
2022/04/26 14:26:03;;;;;;;3.10;1.57;;;;;;;12.64;42.83;99680.53;1775198;79;20951;-61
2022/04/26 14:28:29;;;;;;;2.52;1.72;;;;;;;12.57;43.22;99680.48;1752742;79;21008;-61
2022/04/26 14:30:57;;;;;;;2.22;1.50;;;;;;;12.58;44.05;99687.42;1795690;79;21455;-61
2022/04/26 14:33:23;;;;;;;3.10;1.67;;;;;;;12.75;43.77;99691.24;1774297;79;26579;-61
2022/04/26 14:35:50;;;;;;;2.30;1.67;;;;;;;12.82;43.06;99694.81;1756769;79;20985;-61
2022/04/26 14:38:17;;;;;;;2.20;1.32;;;;;;;12.68;42.77;99693.81;1801542;79;20993;-61
2022/04/26 14:40:44;;;;;;;1.95;1.37;;;;;;;12.61;42.99;99687.72;1798169;79;20993;-61
2022/04/26 14:43:14;;;;;;;2.47;1.17;;;;;;;12.57;42.88;99689.64;1788761;79;21974;-61
2022/04/26 14:45:47;;;;;;;4.08;1.37;;;;;;;12.63;43.54;99698.50;1794177;79;20890;-61
2022/04/26 14:48:16;;;;;;;2.72;1.60;;;;;;;12.59;42.49;99685.64;1802157;78;21413;-61
2022/04/26 14:50:44;;;;;;;2.35;1.60;;;;;;;12.62;42.67;99691.55;1802825;78;20917;-62
2022/04/26 14:53:14;;;;;;;;;;;;;;;12.58;42.79;99695.28;1777558;78;20938;-61
2022/04/26 14:55:42;;;;;;;2.52;1.52;;;;;;;12.56;42.76;99699.75;1783536;79;21133;-61
2022/04/26 14:58:12;;;;;;;2.35;1.37;;;;;;;12.53;42.43;99701.23;1759753;81;20993;-61
2022/04/26 15:00:38;;;;;;;1.70;1.60;;;;;;;12.48;43.15;99696.72;1758337;79;20974;-62
2022/04/26 15:03:06;;;;;;;2.65;1.50;;;;;;;12.53;43.27;99696.00;1790812;79;20918;-62
2022/04/26 15:05:34;;;;;;;3.17;1.65;;;;;;;12.45;42.35;99717.84;1790011;79;20970;-63
2022/04/26 15:10:46;;;;;;;1.45;1.15;;;;;;;12.23;41.97;99698.05;1760418;80;21018;-62
2022/04/26 15:18:44;;;;;;;2.72;1.27;;;;;;;12.58;42.91;99713.62;1761858;79;21791;-62
2022/04/26 15:21:10;;;;;;;6.65;1.32;;;;;;;12.58;42.90;99708.38;1738044;81;21514;-61
2022/04/26 15:23:37;;;;;;;3.57;1.77;;;;;;;12.47;41.80;99715.98;1773289;81;21650;-61
2022/04/26 15:26:09;;;;;;;2.72;1.60;;;;;;;12.46;42.62;99711.66;1780201;79;26649;-62
2022/04/26 15:28:35;;;;;;;2.30;1.70;;;;;;;12.28;41.96;99716.98;1769322;79;21115;-62
2022/04/26 15:31:02;;;;;;;4.60;1.80;;;;;;;12.27;42.22;99712.69;1764620;79;20977;-61
2022/04/26 15:33:29;;;;;;;1.80;1.50;;;;;;;12.34;42.90;99709.73;1752930;81;21399;-61
2022/04/26 15:36:03;;;;;;;3.33;1.77;;;;;;;12.26;42.25;99713.59;1735449;81;21104;-62
2022/04/26 15:38:29;;;;;;;3.17;1.55;;;;;;;12.14;41.76;99714.27;1748999;81;21048;-64
2022/04/26 15:41:01;;;;;;;4.65;1.80;;;;;;;12.17;42.09;99716.72;1748239;80;21542;-62
2022/04/26 15:43:24;;;;;;;2.35;1.80;;;;;;;12.10;41.79;99720.61;1765686;79;21036;-61
2022/04/26 15:45:51;;;;;;;3.50;1.82;;;;;;;12.00;42.62;99728.55;1756627;79;22520;-61
2022/04/26 15:48:18;;;;;;;2.90;1.50;;;;;;;12.06;43.05;99729.53;1772969;79;20926;-61
2022/04/26 15:50:45;;;;;;;2.77;2.00;;;;;;;11.83;41.45;99731.56;1765223;79;21017;-61
2022/04/26 15:53:12;;;;;;;3.62;1.87;;;;;;;11.66;42.19;99731.59;1763080;79;21103;-61
2022/04/26 15:55:38;;;;;;;2.60;1.98;;;;;;;11.59;42.71;99736.27;1770448;79;20985;-61
2022/04/26 15:58:05;;;;;;;4.55;1.95;;;;;;;11.56;42.83;99739.05;1745437;79;21111;-61
2022/04/26 16:00:35;;;;;;;2.17;1.90;;;;;;;11.43;42.82;99745.84;1756053;81;21450;-61
2022/04/26 16:03:02;;;;;;;2.87;1.87;;;;;;;11.46;43.04;99750.08;1764290;79;21605;-62
2022/04/26 16:05:29;;;;;;;5.30;2.12;;;;;;;11.39;42.75;99750.36;1746710;79;21074;-61
2022/04/26 16:08:00;;;;;;;3.08;1.80;;;;;;;11.25;42.89;99737.14;1762692;79;20969;-60
2022/04/26 16:21:35;;;;;;;3.95;2.00;;;;;;;11.20;43.48;99759.60;1736545;81;21065;-61
2022/04/26 16:24:02;;;;;;;4.72;2.05;;;;;;;11.14;43.43;99756.42;1757527;80;21516;-61